Time;durP1;ratioP1;P1;durP2;ratioP2;P2;SDS_P1;SDS_P2;PMS_P1;PMS_P2;Temp;Humidity;BMP_temperature;BMP_pressure;BME280_temperature;BME280_humidity;BME280_pressure;Samples;Min_cycle;Max_cycle;Signal;HPM_P1;HPM_P2
2022/08/17 00:00:27;;;;;;;15.67;13.17;;;23.50;99.90;;;;;;5153934;27;20512;-52
2022/08/17 00:02:59;;;;;;;17.60;13.20;;;23.50;99.90;;;;;;5153199;27;20515;-53
2022/08/17 00:05:27;;;;;;;17.93;14.03;;;23.50;99.90;;;;;;5152732;27;20474;-55
2022/08/17 00:07:54;;;;;;;14.67;12.30;;;23.50;99.90;;;;;;5152835;27;20462;-52
2022/08/17 00:10:22;;;;;;;16.43;12.80;;;23.50;99.90;;;;;;5152944;27;20486;-52
2022/08/17 00:12:51;;;;;;;12.77;11.40;;;23.40;99.90;;;;;;5154326;27;20462;-55
2022/08/17 00:15:20;;;;;;;14.03;10.60;;;23.40;99.90;;;;;;5147753;27;20539;-55
2022/08/17 00:17:48;;;;;;;13.17;11.80;;;23.40;99.90;;;;;;5138935;27;20471;-54
2022/08/17 00:20:15;;;;;;;12.87;11.57;;;23.40;99.90;;;;;;5138961;27;20439;-53
2022/08/17 00:22:42;;;;;;;14.07;11.30;;;23.40;99.90;;;;;;5138442;27;20446;-53
2022/08/17 00:25:15;;;;;;;16.13;10.57;;;23.40;99.90;;;;;;5139440;27;20491;-60
2022/08/17 00:27:42;;;;;;;11.63;10.40;;;23.40;99.90;;;;;;5140071;27;20440;-53
2022/08/17 00:30:13;;;;;;;14.20;11.27;;;23.40;99.90;;;;;;5138169;27;20444;-53
2022/08/17 00:32:42;;;;;;;12.90;11.53;;;23.40;99.90;;;;;;5138793;27;20459;-53
2022/08/17 00:35:12;;;;;;;13.93;12.53;;;23.40;99.90;;;;;;5138758;27;20475;-51
2022/08/17 00:37:39;;;;;;;15.63;11.10;;;23.40;99.90;;;;;;5138345;27;20471;-55
2022/08/17 00:40:08;;;;;;;14.73;11.60;;;23.30;99.90;;;;;;5138663;27;20530;-54
2022/08/17 00:42:35;;;;;;;13.87;11.87;;;23.30;99.90;;;;;;5138254;27;20927;-53
2022/08/17 00:45:03;;;;;;;14.53;11.00;;;23.30;99.90;;;;;;5138217;27;20459;-53
2022/08/17 00:47:31;;;;;;;13.97;11.70;;;23.20;99.90;;;;;;5138648;27;20436;-52
2022/08/17 00:50:00;;;;;;;15.70;11.50;;;23.20;99.90;;;;;;5138991;27;20466;-55
2022/08/17 00:52:32;;;;;;;11.23;10.03;;;23.20;99.90;;;;;;5141941;27;20439;-50
2022/08/17 00:55:00;;;;;;;11.60;9.97;;;23.20;99.90;;;;;;5141784;27;20467;-56
2022/08/17 00:57:30;;;;;;;17.43;11.53;;;23.20;99.90;;;;;;5140280;27;20464;-53
2022/08/17 01:00:03;;;;;;;12.43;11.00;;;23.20;99.90;;;;;;5138913;27;20446;-53
2022/08/17 01:02:34;;;;;;;12.40;11.10;;;23.20;99.90;;;;;;5137673;27;20459;-53
2022/08/17 01:05:01;;;;;;;13.27;11.10;;;23.20;99.90;;;;;;5137620;27;20525;-53
2022/08/17 01:07:28;;;;;;;16.23;12.70;;;23.20;99.90;;;;;;5140469;27;20463;-52
2022/08/17 01:09:55;;;;;;;15.53;11.73;;;23.10;99.90;;;;;;5141894;27;20496;-54
2022/08/17 01:12:22;;;;;;;14.57;11.60;;;23.00;99.90;;;;;;5138765;27;20458;-49
2022/08/17 01:14:49;;;;;;;14.43;12.93;;;22.90;99.90;;;;;;5136902;27;20443;-51
2022/08/17 01:17:16;;;;;;;13.03;11.80;;;22.90;99.90;;;;;;5138018;27;20912;-53
2022/08/17 01:19:44;;;;;;;16.57;13.63;;;22.80;99.90;;;;;;5137571;27;20570;-59
2022/08/17 01:22:22;;;;;;;13.47;12.07;;;22.80;99.90;;;;;;5137926;27;20905;-53
2022/08/17 01:24:52;;;;;;;17.10;13.17;;;22.70;99.90;;;;;;5138178;27;20554;-55
2022/08/17 01:27:20;;;;;;;16.20;13.67;;;22.70;99.90;;;;;;5140582;27;20455;-51
2022/08/17 01:29:50;;;;;;;16.10;13.40;;;22.70;99.90;;;;;;5138779;27;20444;-54
2022/08/17 01:32:18;;;;;;;16.27;13.10;;;22.70;99.90;;;;;;5137451;27;20467;-53
2022/08/17 01:34:45;;;;;;;15.97;12.47;;;22.60;99.90;;;;;;5138166;27;20451;-55
2022/08/17 01:37:13;;;;;;;14.87;13.33;;;22.50;99.90;;;;;;5141192;27;20439;-55
2022/08/17 01:39:46;;;;;;;13.97;12.37;;;22.50;99.90;;;;;;5138083;27;20860;-54
2022/08/17 01:42:20;;;;;;;14.60;12.73;;;22.50;99.90;;;;;;5137564;27;20428;-52
2022/08/17 01:44:47;;;;;;;17.17;13.83;;;22.50;99.90;;;;;;5137254;27;20494;-51
2022/08/17 01:47:14;;;;;;;19.17;13.80;;;22.50;99.90;;;;;;5137454;27;20451;-57
2022/08/17 01:49:41;;;;;;;15.50;13.53;;;22.50;99.90;;;;;;5138110;27;20459;-50
2022/08/17 01:52:10;;;;;;;17.03;13.97;;;22.50;99.90;;;;;;5139396;27;20547;-54
2022/08/17 01:54:39;;;;;;;18.33;14.57;;;22.50;99.90;;;;;;5139514;27;20900;-53
2022/08/17 01:57:08;;;;;;;14.80;13.27;;;22.50;99.90;;;;;;5139890;27;20452;-56
2022/08/17 01:59:35;;;;;;;16.77;13.13;;;22.60;99.90;;;;;;5138999;27;20746;-53
2022/08/17 02:02:03;;;;;;;15.37;13.80;;;22.60;99.90;;;;;;5138382;27;20567;-51
2022/08/17 02:04:30;;;;;;;19.67;15.80;;;22.50;99.90;;;;;;5141303;27;20604;-51
2022/08/17 02:06:57;;;;;;;17.13;14.67;;;22.50;99.90;;;;;;5139592;27;20454;-55
2022/08/17 02:09:26;;;;;;;16.73;14.40;;;22.50;99.90;;;;;;5137742;27;20539;-54
2022/08/17 02:11:53;;;;;;;18.37;15.37;;;22.50;99.90;;;;;;5137510;27;20439;-53
2022/08/17 02:14:22;;;;;;;17.90;14.47;;;22.50;99.90;;;;;;5137456;27;20509;-59
2022/08/17 02:16:49;;;;;;;17.03;14.73;;;22.50;99.90;;;;;;5138025;27;20787;-55
2022/08/17 02:19:16;;;;;;;18.90;15.60;;;22.50;99.90;;;;;;5137415;27;20443;-51
2022/08/17 02:21:45;;;;;;;20.53;13.63;;;22.50;99.90;;;;;;5137549;27;20462;-55
2022/08/17 02:24:15;;;;;;;20.20;14.83;;;22.50;99.90;;;;;;5137049;27;20447;-52
2022/08/17 02:26:42;;;;;;;17.60;15.70;;;22.50;99.90;;;;;;5137328;27;20468;-54
2022/08/17 02:29:09;;;;;;;19.97;16.60;;;22.50;99.90;;;;;;5137101;27;20475;-53
2022/08/17 02:31:37;;;;;;;19.80;14.30;;;22.50;99.90;;;;;;5136497;27;20534;-54
2022/08/17 02:34:05;;;;;;;17.80;15.30;;;22.50;99.90;;;;;;5137255;27;20436;-51
2022/08/17 02:36:32;;;;;;;18.07;14.93;;;22.50;99.90;;;;;;5136392;27;20852;-53
2022/08/17 02:38:59;;;;;;;16.20;14.50;;;22.60;99.90;;;;;;5138114;27;20471;-54
2022/08/17 02:41:26;;;;;;;15.90;14.23;;;22.60;99.90;;;;;;5138084;27;20467;-54
2022/08/17 02:43:53;;;;;;;16.30;14.00;;;22.50;99.90;;;;;;5135945;27;20887;-49
2022/08/17 02:46:20;;;;;;;18.03;13.97;;;22.50;99.90;;;;;;5136414;27;20467;-54
2022/08/17 02:48:48;;;;;;;16.43;13.47;;;22.50;99.90;;;;;;5136153;27;20459;-51
2022/08/17 02:51:15;;;;;;;16.07;13.67;;;22.40;99.90;;;;;;5136419;27;20474;-50
2022/08/17 02:53:42;;;;;;;17.90;13.63;;;22.40;99.90;;;;;;5138593;27;20518;-54
2022/08/17 02:56:09;;;;;;;17.10;14.33;;;22.50;99.90;;;;;;5140262;27;20451;-54
2022/08/17 02:58:36;;;;;;;15.20;12.90;;;22.40;99.90;;;;;;5137936;27;20439;-57
2022/08/17 03:01:03;;;;;;;16.73;13.30;;;22.40;99.90;;;;;;5136529;27;20432;-54
2022/08/17 03:03:30;;;;;;;15.10;13.50;;;22.50;99.90;;;;;;5135862;28;20481;-54
2022/08/17 03:05:58;;;;;;;14.70;13.13;;;22.40;99.90;;;;;;5136408;28;20463;-54
2022/08/17 03:08:26;;;;;;;19.53;14.20;;;22.40;99.90;;;;;;5135943;28;20551;-54
2022/08/17 03:10:53;;;;;;;17.00;13.57;;;22.40;99.90;;;;;;5136696;28;20467;-54
2022/08/17 03:13:19;;;;;;;19.03;14.03;;;22.40;99.90;;;;;;5136222;28;20440;-54
2022/08/17 03:15:47;;;;;;;18.63;14.30;;;22.30;99.90;;;;;;5136273;28;20456;-54
2022/08/17 03:18:15;;;;;;;15.13;13.60;;;22.30;99.90;;;;;;5136130;28;20450;-53
2022/08/17 03:20:44;;;;;;;16.63;13.43;;;22.40;99.90;;;;;;5137132;28;20464;-55
2022/08/17 03:23:12;;;;;;;15.17;11.87;;;22.40;99.90;;;;;;5140028;28;20519;-54
2022/08/17 03:25:41;;;;;;;13.30;11.90;;;22.30;99.90;;;;;;5138529;27;20475;-53
2022/08/17 03:28:10;;;;;;;14.53;11.90;;;22.30;99.90;;;;;;5136623;28;20444;-55
2022/08/17 03:30:38;;;;;;;17.60;13.13;;;22.40;99.90;;;;;;5137474;28;20538;-60
2022/08/17 03:33:08;;;;;;;16.30;14.10;;;22.40;99.90;;;;;;5137194;28;20467;-51
2022/08/17 03:35:39;;;;;;;14.80;13.30;;;22.30;99.90;;;;;;5137682;27;20428;-54
2022/08/17 03:38:07;;;;;;;16.90;12.97;;;22.40;99.90;;;;;;5136695;28;20489;-53
2022/08/17 03:40:35;;;;;;;18.30;13.10;;;22.30;99.90;;;;;;5136447;28;20976;-51
2022/08/17 03:43:07;;;;;;;17.00;13.70;;;22.30;99.90;;;;;;5136007;28;20440;-54
2022/08/17 03:56:43;;;;;;;16.93;13.43;;;22.20;99.90;;;;;;5139617;27;20426;-50
2022/08/17 03:59:13;;;;;;;14.77;13.17;;;22.20;99.90;;;;;;5139594;27;20427;-53
2022/08/17 04:01:43;;;;;;;15.70;14.10;;;22.20;99.90;;;;;;5139647;27;20482;-52
2022/08/17 04:04:10;;;;;;;23.23;16.70;;;22.20;99.90;;;;;;5139247;27;20483;-54
2022/08/17 04:06:37;;;;;;;18.03;15.67;;;22.20;99.90;;;;;;5139388;27;20481;-54
2022/08/17 04:09:05;;;;;;;17.73;14.80;;;22.20;99.90;;;;;;5140142;27;20474;-52
2022/08/17 04:11:32;;;;;;;21.00;14.27;;;22.20;99.90;;;;;;5143070;27;20439;-53
2022/08/17 04:14:01;;;;;;;17.77;14.00;;;22.20;99.90;;;;;;5141775;27;20451;-53
2022/08/17 04:16:29;;;;;;;18.70;14.33;;;22.20;99.90;;;;;;5139386;27;20443;-55
2022/08/17 04:18:56;;;;;;;18.60;15.03;;;22.20;99.90;;;;;;5139550;27;20757;-53
2022/08/17 04:21:23;;;;;;;16.63;13.60;;;22.20;99.90;;;;;;5139314;27;20467;-53
2022/08/17 04:23:50;;;;;;;16.60;13.97;;;22.20;99.90;;;;;;5139240;27;20473;-53
2022/08/17 04:26:17;;;;;;;18.87;15.33;;;22.20;99.90;;;;;;5139486;27;20964;-54
2022/08/17 04:28:44;;;;;;;17.00;13.20;;;22.20;99.90;;;;;;5139233;27;20970;-50
2022/08/17 04:31:15;;;;;;;18.97;14.97;;;22.20;99.90;;;;;;5139189;27;20908;-49
2022/08/17 04:33:43;;;;;;;17.70;14.00;;;22.20;99.90;;;;;;5143102;27;20478;-53
2022/08/17 04:36:11;;;;;;;17.87;15.47;;;22.30;99.90;;;;;;5142293;27;20440;-54
2022/08/17 04:38:40;;;;;;;23.80;14.40;;;22.30;99.90;;;;;;5139646;27;20525;-55
2022/08/17 04:43:57;;;;;;;16.20;14.33;;;22.40;99.90;;;;;;5139202;27;20974;-51
2022/08/17 04:46:27;;;;;;;17.00;15.20;;;22.40;99.90;;;;;;5138695;27;20491;-55
2022/08/17 04:48:56;;;;;;;17.40;14.60;;;22.50;99.90;;;;;;5142622;27;20448;-54
2022/08/17 04:51:26;;;;;;;20.30;16.40;;;22.50;99.90;;;;;;5141021;27;20443;-52
2022/08/17 04:53:56;;;;;;;16.80;14.53;;;22.60;99.90;;;;;;5138523;27;20892;-53
2022/08/17 04:56:24;;;;;;;16.50;14.80;;;22.70;99.90;;;;;;5138406;27;20446;-55
2022/08/17 04:58:54;;;;;;;16.43;14.70;;;22.70;99.90;;;;;;5138653;27;20463;-54
2022/08/17 05:01:23;;;;;;;16.83;13.90;;;22.70;99.90;;;;;;5138666;27;20471;-54
2022/08/17 05:03:52;;;;;;;17.00;14.77;;;22.80;99.90;;;;;;5138381;27;20464;-53
2022/08/17 05:06:19;;;;;;;17.30;14.43;;;22.80;99.90;;;;;;5138344;27;20578;-49
2022/08/17 05:08:46;;;;;;;17.03;14.37;;;22.80;99.90;;;;;;5138298;27;20449;-51
2022/08/17 05:11:13;;;;;;;20.73;14.73;;;22.90;99.90;;;;;;5138174;27;20464;-53
2022/08/17 05:13:40;;;;;;;19.23;14.87;;;22.90;99.90;;;;;;5137724;27;20447;-54
2022/08/17 05:16:07;;;;;;;19.30;15.07;;;22.90;99.90;;;;;;5138525;27;20470;-56
2022/08/17 05:18:36;;;;;;;15.20;13.20;;;22.90;99.90;;;;;;5138452;27;20500;-54
2022/08/17 05:21:05;;;;;;;15.57;13.93;;;23.00;99.90;;;;;;5138563;27;20524;-55
2022/08/17 05:23:32;;;;;;;17.23;15.10;;;23.00;99.90;;;;;;5138239;27;20454;-54
2022/08/17 05:25:58;;;;;;;15.80;14.17;;;23.10;99.90;;;;;;5137879;27;20931;-54
2022/08/17 05:28:27;;;;;;;16.83;15.03;;;23.10;99.90;;;;;;5137866;27;20554;-54
2022/08/17 05:30:55;;;;;;;15.30;13.27;;;23.20;99.90;;;;;;5138073;27;20769;-51
2022/08/17 05:33:25;;;;;;;17.30;14.20;;;23.30;99.90;;;;;;5138920;27;20440;-55
2022/08/17 05:35:55;;;;;;;22.20;14.77;;;23.30;99.90;;;;;;5140252;27;20466;-54
2022/08/17 05:38:25;;;;;;;17.30;14.60;;;23.40;99.90;;;;;;5138539;27;20463;-55
2022/08/17 05:40:53;;;;;;;16.87;13.77;;;23.50;99.90;;;;;;5140276;27;20464;-50
2022/08/17 05:43:22;;;;;;;19.87;15.27;;;23.50;99.90;;;;;;5140130;27;20722;-55
2022/08/17 05:46:00;;;;;;;17.53;15.27;;;23.50;99.90;;;;;;5139907;27;20486;-51
2022/08/17 05:48:28;;;;;;;20.27;15.47;;;23.60;99.90;;;;;;5139403;27;20439;-53
2022/08/17 05:51:02;;;;;;;19.37;13.73;;;23.70;99.90;;;;;;5137911;27;20454;-50
2022/08/17 05:53:37;;;;;;;18.13;13.63;;;23.80;99.90;;;;;;5137686;27;20464;-53
2022/08/17 05:56:13;;;;;;;16.77;15.00;;;23.80;99.90;;;;;;5137683;27;20427;-54
2022/08/17 05:58:51;;;;;;;16.70;13.60;;;23.90;99.90;;;;;;5136385;27;20463;-53
2022/08/17 06:01:30;;;;;;;14.77;12.73;;;24.00;99.90;;;;;;5137877;27;20447;-55
2022/08/17 06:04:05;;;;;;;14.97;13.00;;;24.00;99.90;;;;;;5137277;27;20546;-53
2022/08/17 06:06:40;;;;;;;17.07;15.03;;;24.10;99.90;;;;;;5137705;27;20469;-59
2022/08/17 06:09:21;;;;;;;15.03;13.53;;;24.20;99.90;;;;;;5140540;27;20512;-53
2022/08/17 06:11:56;;;;;;;19.73;13.30;;;24.20;99.90;;;;;;5138767;27;20429;-52
2022/08/17 06:14:43;;;;;;;20.10;14.50;;;24.30;99.90;;;;;;5136716;27;20455;-53
2022/08/17 06:17:13;;;;;;;13.80;11.57;;;24.30;99.90;;;;;;5136866;27;20554;-54
2022/08/17 06:19:46;;;;;;;21.10;13.50;;;24.40;99.90;;;;;;5136926;27;20420;-55
2022/08/17 06:22:16;;;;;;;13.43;12.03;;;24.50;99.90;;;;;;5136488;27;20452;-54
2022/08/17 06:24:48;;;;;;;11.70;10.50;;;24.60;99.90;;;;;;5136631;27;20439;-52
2022/08/17 06:27:24;;;;;;;12.70;10.60;;;24.60;99.90;;;;;;5137171;27;20488;-54
2022/08/17 06:29:57;;;;;;;20.33;12.83;;;24.70;99.90;;;;;;5137324;27;20438;-51
2022/08/17 06:32:25;;;;;;;16.43;12.47;;;24.80;99.90;;;;;;5137206;27;20458;-54
2022/08/17 06:34:54;;;;;;;15.73;13.20;;;24.80;99.90;;;;;;5137079;27;20439;-54
2022/08/17 06:37:47;;;;;;;13.60;11.63;;;24.90;99.90;;;;;;5139212;27;20466;-57
2022/08/17 06:40:47;;;;;;;16.07;11.40;;;24.90;99.90;;;;;;5131430;27;20443;-50
2022/08/17 06:43:33;;;;;;;16.30;12.20;;;25.00;99.90;;;;;;5136688;27;20443;-54
2022/08/17 06:46:05;;;;;;;13.47;10.90;;;25.10;99.90;;;;;;5138394;27;20468;-58
2022/08/17 06:48:41;;;;;;;15.73;11.33;;;25.20;99.90;;;;;;5138800;27;20439;-55
2022/08/17 06:51:18;;;;;;;12.80;11.20;;;25.30;99.90;;;;;;5137576;27;20467;-55
2022/08/17 06:53:51;;;;;;;10.50;9.50;;;25.40;99.90;;;;;;5135910;27;20925;-56
2022/08/17 06:56:30;;;;;;;11.10;9.07;;;25.40;99.90;;;;;;5139838;27;20474;-46
2022/08/17 06:59:01;;;;;;;11.10;9.80;;;25.50;99.90;;;;;;5146885;27;20572;-52
2022/08/17 07:01:33;;;;;;;10.20;8.40;;;25.60;99.90;;;;;;5147531;27;20511;-52
2022/08/17 07:04:18;;;;;;;12.07;9.00;;;25.70;99.90;;;;;;5153668;27;20436;-49
2022/08/17 07:06:50;;;;;;;12.70;11.30;;;25.90;99.90;;;;;;5155451;27;20534;-49
2022/08/17 07:09:22;;;;;;;8.70;7.87;;;25.90;99.90;;;;;;5154222;27;20419;-53
2022/08/17 07:11:52;;;;;;;10.67;9.00;;;26.00;99.90;;;;;;5155121;27;20458;-51
2022/08/17 07:14:35;;;;;;;10.20;9.20;;;26.10;99.90;;;;;;5154642;27;20487;-47
2022/08/17 07:17:06;;;;;;;11.30;10.20;;;26.20;99.90;;;;;;5155317;27;20423;-49
2022/08/17 07:19:36;;;;;;;11.67;8.40;;;26.40;99.90;;;;;;5154659;28;20432;-52
2022/08/17 07:22:11;;;;;;;12.97;10.37;;;26.50;99.90;;;;;;5154381;27;20481;-53
2022/08/17 07:24:46;;;;;;;14.40;10.00;;;26.70;99.90;;;;;;5154350;27;20439;-55
2022/08/17 07:27:17;;;;;;;10.97;8.90;;;26.80;99.90;;;;;;5158314;27;20518;-51
2022/08/17 07:29:50;;;;;;;11.70;9.70;;;26.90;99.90;;;;;;5161688;27;20416;-50
2022/08/17 07:32:21;;;;;;;15.50;10.80;;;27.00;99.90;;;;;;5161573;27;20435;-49
2022/08/17 07:35:15;;;;;;;10.20;9.30;;;27.10;99.90;;;;;;5159969;27;20404;-51
2022/08/17 07:37:45;;;;;;;13.23;11.13;;;27.20;99.90;;;;;;5152408;27;20443;-47
2022/08/17 07:40:18;;;;;;;12.50;9.83;;;27.30;99.90;;;;;;5154695;27;20507;-49
2022/08/17 07:43:18;;;;;;;14.60;9.90;;;27.40;99.90;;;;;;5161014;27;20427;-52
2022/08/17 07:48:53;;;;;;;9.97;8.53;;;27.80;99.90;;;;;;5160381;27;20427;-53
2022/08/17 07:51:34;;;;;;;9.70;8.23;;;28.00;99.90;;;;;;5160200;27;20444;-50
2022/08/17 07:54:21;;;;;;;13.63;10.67;;;28.10;99.90;;;;;;5160980;27;20407;-52
2022/08/17 07:56:50;;;;;;;9.87;8.00;;;28.50;99.90;;;;;;5160981;27;20422;-52
2022/08/17 07:59:19;;;;;;;9.43;7.87;;;29.40;99.90;;;;;;5160250;27;20435;-52
2022/08/17 08:02:04;;;;;;;7.20;6.60;;;30.90;99.90;;;;;;5154012;27;20493;-53
2022/08/17 08:04:35;;;;;;;8.43;7.63;;;32.70;89.40;;;;;;5155718;27;20505;-52
2022/08/17 08:07:06;;;;;;;6.80;6.20;;;34.60;81.60;;;;;;5152021;27;20740;-51
2022/08/17 08:09:40;;;;;;;7.20;6.50;;;36.00;65.90;;;;;;5154131;27;20490;-49
2022/08/17 08:12:28;;;;;;;7.20;6.60;;;37.30;61.20;;;;;;5154977;27;20562;-50
2022/08/17 08:14:57;;;;;;;7.40;6.80;;;38.60;57.40;;;;;;5155474;27;20430;-51
2022/08/17 08:17:30;;;;;;;7.77;6.87;;;39.50;53.50;;;;;;5155613;27;20435;-48
2022/08/17 08:20:03;;;;;;;7.17;6.57;;;40.10;51.60;;;;;;5156279;27;20428;-51
2022/08/17 08:22:39;;;;;;;7.07;6.37;;;40.50;50.10;;;;;;5155958;27;20467;-51
2022/08/17 08:25:19;;;;;;;6.40;5.80;;;40.90;48.50;;;;;;5155848;27;20492;-54
2022/08/17 08:27:51;;;;;;;7.10;6.50;;;41.20;46.90;;;;;;5155547;27;20510;-51
2022/08/17 08:30:21;;;;;;;5.90;5.40;;;41.50;44.20;;;;;;5152806;27;20436;-53
2022/08/17 08:33:12;;;;;;;6.60;6.10;;;41.40;45.30;;;;;;5151450;27;20444;-54
2022/08/17 08:35:46;;;;;;;7.40;6.80;;;41.30;45.20;;;;;;5149344;27;20501;-52
2022/08/17 08:38:21;;;;;;;10.03;6.73;;;41.20;46.50;;;;;;5151884;27;20899;-51
2022/08/17 08:41:01;;;;;;;12.67;7.10;;;41.40;44.80;;;;;;5151689;27;20547;-49
2022/08/17 08:43:36;;;;;;;8.10;7.30;;;41.50;44.50;;;;;;5154529;27;20420;-55
2022/08/17 08:46:10;;;;;;;5.00;4.53;;;41.70;43.00;;;;;;5154459;27;20444;-47
2022/08/17 08:49:06;;;;;;;6.40;5.60;;;41.80;41.80;;;;;;5153459;27;20467;-51
2022/08/17 08:51:45;;;;;;;7.00;5.90;;;41.90;42.90;;;;;;5152111;27;20496;-52
2022/08/17 08:54:20;;;;;;;5.70;5.20;;;41.90;42.20;;;;;;5150408;27;20443;-49
2022/08/17 08:56:52;;;;;;;5.30;4.80;;;41.90;41.80;;;;;;5149271;27;20426;-54
2022/08/17 08:59:28;;;;;;;6.37;5.73;;;41.80;41.40;;;;;;5149930;27;20547;-51
2022/08/17 09:02:03;;;;;;;7.57;5.70;;;41.80;41.90;;;;;;5155432;27;20430;-53
2022/08/17 09:04:53;;;;;;;6.00;5.50;;;41.70;41.40;;;;;;5156570;27;20469;-53
2022/08/17 09:07:29;;;;;;;5.83;5.33;;;41.60;41.50;;;;;;5155719;27;20463;-55
2022/08/17 09:10:06;;;;;;;6.20;5.40;;;41.70;40.40;;;;;;5153214;27;20430;-51
2022/08/17 09:12:41;;;;;;;9.37;6.47;;;41.50;41.20;;;;;;5158225;27;20420;-53
2022/08/17 09:15:16;;;;;;;6.00;5.33;;;41.40;42.00;;;;;;5158157;27;20477;-52
2022/08/17 09:17:48;;;;;;;7.57;5.57;;;41.50;41.80;;;;;;5155808;27;20455;-50
2022/08/17 09:20:24;;;;;;;5.93;5.43;;;41.60;41.20;;;;;;5157252;27;20448;-54
2022/08/17 09:22:57;;;;;;;6.10;5.37;;;41.60;40.10;;;;;;5159544;27;20430;-44
2022/08/17 09:25:27;;;;;;;5.43;5.00;;;41.60;40.60;;;;;;5158876;27;20419;-53
2022/08/17 09:27:58;;;;;;;5.50;5.00;;;41.50;40.60;;;;;;5158971;27;20507;-54
2022/08/17 09:30:40;;;;;;;4.80;4.30;;;41.50;40.40;;;;;;5153565;27;20467;-50
2022/08/17 09:33:09;;;;;;;5.30;4.80;;;41.40;39.80;;;;;;5155054;27;20439;-53
2022/08/17 09:35:43;;;;;;;7.00;5.00;;;41.40;41.50;;;;;;5153934;27;20459;-51
2022/08/17 09:38:20;;;;;;;14.90;6.10;;;41.40;41.10;;;;;;5157005;27;20423;-48
2022/08/17 09:40:53;;;;;;;5.97;5.47;;;41.50;41.80;;;;;;5152284;27;20542;-48
2022/08/17 09:43:30;;;;;;;7.53;5.10;;;41.60;41.00;;;;;;5157676;27;20455;-62
2022/08/17 09:46:02;;;;;;;7.70;4.90;;;41.50;40.70;;;;;;5157914;27;20435;-63
2022/08/17 09:48:37;;;;;;;5.30;4.40;;;41.50;41.90;;;;;;5156633;27;20480;-62
2022/08/17 09:51:12;;;;;;;4.77;4.37;;;41.70;39.50;;;;;;5157840;27;20419;-61
2022/08/17 09:53:40;;;;;;;4.57;4.20;;;41.90;38.70;;;;;;5157059;27;20447;-59
2022/08/17 09:56:22;;;;;;;11.60;9.50;;;41.90;37.70;;;;;;5157795;27;20428;-58
2022/08/17 09:59:08;;;;;;;5.73;5.33;;;41.70;39.70;;;;;;5157583;27;20427;-60
2022/08/17 10:01:43;;;;;;;5.07;4.70;;;41.60;39.10;;;;;;5157022;27;20468;-59
2022/08/17 10:04:36;;;;;;;5.07;4.57;;;41.70;38.80;;;;;;5157434;27;20442;-61
2022/08/17 10:07:14;;;;;;;4.73;4.33;;;41.60;38.40;;;;;;5155127;27;20486;-63
2022/08/17 10:09:55;;;;;;;6.40;5.17;;;41.40;38.80;;;;;;5157880;27;20434;-61
2022/08/17 10:12:31;;;;;;;5.60;4.77;;;41.30;39.80;;;;;;5157600;27;20523;-57
2022/08/17 10:15:21;;;;;;;5.30;4.80;;;41.20;40.50;;;;;;5157894;27;20427;-61
2022/08/17 10:18:03;;;;;;;5.30;4.53;;;41.00;41.20;;;;;;5157662;27;20439;-60
2022/08/17 10:20:36;;;;;;;4.87;4.47;;;40.80;40.30;;;;;;5157936;27;20458;-61
2022/08/17 10:26:13;;;;;;;4.47;4.17;;;40.50;39.70;;;;;;5158203;27;20449;-60
2022/08/17 10:28:45;;;;;;;4.17;3.77;;;40.40;40.30;;;;;;5157722;27;20485;-62
2022/08/17 10:31:22;;;;;;;4.80;4.40;;;40.20;39.30;;;;;;5157956;27;20491;-60
2022/08/17 10:34:17;;;;;;;3.97;3.63;;;39.40;39.30;;;;;;5157603;27;20412;-57
2022/08/17 10:36:53;;;;;;;5.87;4.70;;;38.80;41.70;;;;;;5156662;27;20474;-60
2022/08/17 10:39:31;;;;;;;7.33;5.13;;;38.80;42.40;;;;;;5155404;27;20457;-62
2022/08/17 10:42:04;;;;;;;5.20;4.67;;;38.80;43.20;;;;;;5155825;27;20526;-62
2022/08/17 10:44:44;;;;;;;6.73;5.40;;;38.90;41.40;;;;;;5156177;27;20489;-61
2022/08/17 10:47:15;;;;;;;7.13;4.00;;;38.80;43.50;;;;;;5155223;27;20516;-60
2022/08/17 10:49:46;;;;;;;6.83;4.57;;;38.60;40.90;;;;;;5155811;27;20419;-61
2022/08/17 10:52:48;;;;;;;5.30;4.83;;;38.10;42.30;;;;;;5154228;27;20416;-56
2022/08/17 10:55:19;;;;;;;5.43;4.93;;;37.40;43.90;;;;;;5120632;27;20481;-61
2022/08/17 10:57:48;;;;;;;8.37;6.60;;;36.60;45.00;;;;;;5153045;27;20432;-61
2022/08/17 11:01:11;;;;;;;6.90;6.30;;;36.00;48.10;;;;;;5152725;27;20473;-62
2022/08/17 11:03:52;;;;;;;7.80;7.10;;;35.50;47.10;;;;;;5153380;27;20506;-64
2022/08/17 11:06:25;;;;;;;7.93;7.13;;;35.10;48.70;;;;;;5154491;27;20451;-62
2022/08/17 11:09:19;;;;;;;6.03;5.43;;;34.90;49.80;;;;;;5154027;27;20459;-62
2022/08/17 11:12:06;;;;;;;7.93;4.57;;;34.60;49.50;;;;;;5155248;28;20451;-60
2022/08/17 11:14:47;;;;;;;5.73;5.07;;;34.50;46.40;;;;;;5155139;27;20451;-62
2022/08/17 11:17:36;;;;;;;13.37;6.23;;;34.60;48.90;;;;;;5155116;27;20476;-60
2022/08/17 11:20:20;;;;;;;6.80;5.33;;;34.60;49.20;;;;;;5155629;27;20443;-62
2022/08/17 11:23:08;;;;;;;5.60;5.17;;;34.60;47.60;;;;;;5155261;27;20423;-59
2022/08/17 11:25:39;;;;;;;5.20;4.70;;;34.50;48.00;;;;;;5155759;27;20472;-61
2022/08/17 11:28:14;;;;;;;6.80;5.90;;;34.60;47.60;;;;;;5156379;27;20468;-57
2022/08/17 11:30:48;;;;;;;5.70;5.10;;;34.70;48.70;;;;;;5156037;27;20564;-60
2022/08/17 11:33:54;;;;;;;5.30;4.80;;;34.80;49.10;;;;;;5156400;27;20444;-62
2022/08/17 11:36:48;;;;;;;7.30;6.43;;;34.80;49.20;;;;;;5156358;27;20487;-57
2022/08/17 11:39:33;;;;;;;4.90;4.40;;;34.70;48.80;;;;;;5156323;27;20469;-61
2022/08/17 11:42:10;;;;;;;6.00;5.43;;;34.80;46.90;;;;;;5156705;27;20436;-57
2022/08/17 11:44:54;;;;;;;7.03;4.70;;;35.00;49.50;;;;;;5156586;27;20427;-60
2022/08/17 11:53:51;;;;;;;5.30;4.80;;;35.20;46.00;;;;;;5157374;28;20457;-61
2022/08/17 11:56:39;;;;;;;9.60;4.23;;;35.00;46.90;;;;;;5155021;27;20449;-61
2022/08/17 11:59:40;;;;;;;8.30;6.17;;;34.90;45.60;;;;;;5157521;27;20442;-62
2022/08/17 12:02:37;;;;;;;6.70;4.93;;;34.80;48.40;;;;;;5156325;28;20431;-60
2022/08/17 12:05:31;;;;;;;9.50;4.77;;;34.60;47.60;;;;;;5156991;27;20558;-63
2022/08/17 12:08:08;;;;;;;4.60;4.20;;;34.60;46.60;;;;;;5155901;27;20498;-62
2022/08/17 12:10:40;;;;;;;6.83;5.47;;;34.60;45.80;;;;;;5156707;27;20435;-58
2022/08/17 12:13:12;;;;;;;7.73;4.77;;;34.50;47.60;;;;;;5159147;27;20535;-60
2022/08/17 12:15:48;;;;;;;10.03;9.13;;;34.50;47.40;;;;;;5159508;27;20456;-61
2022/08/17 12:18:21;;;;;;;6.13;5.63;;;34.40;48.10;;;;;;5160110;27;20428;-60
2022/08/17 12:21:10;;;;;;;8.37;6.07;;;34.30;47.40;;;;;;5160393;27;20420;-60
2022/08/17 12:23:53;;;;;;;5.97;5.33;;;34.30;50.90;;;;;;5160116;27;20447;-63
2022/08/17 12:26:25;;;;;;;5.83;5.30;;;34.20;50.30;;;;;;5159928;27;20483;-57
2022/08/17 12:28:58;;;;;;;6.33;5.33;;;34.30;48.10;;;;;;5159377;27;20488;-61
2022/08/17 12:31:28;;;;;;;5.97;4.70;;;34.50;49.40;;;;;;5159862;27;20458;-62
2022/08/17 12:33:59;;;;;;;5.07;4.67;;;34.60;47.00;;;;;;5159706;27;20423;-61
2022/08/17 12:36:27;;;;;;;5.37;4.80;;;34.60;47.20;;;;;;5159644;27;20427;-58
2022/08/17 12:39:00;;;;;;;4.80;4.40;;;34.60;47.10;;;;;;5159487;27;20412;-61
2022/08/17 12:41:34;;;;;;;7.07;4.77;;;34.60;46.30;;;;;;5159208;27;20460;-59
2022/08/17 12:44:08;;;;;;;5.17;4.77;;;34.40;47.40;;;;;;5159572;27;20466;-62
2022/08/17 12:46:47;;;;;;;4.17;3.80;;;34.30;48.00;;;;;;5159377;27;20435;-58
2022/08/17 12:49:22;;;;;;;4.97;4.57;;;34.30;46.80;;;;;;5158940;27;20486;-59
2022/08/17 12:51:51;;;;;;;6.87;5.57;;;34.30;48.70;;;;;;5159177;27;20420;-61
2022/08/17 12:54:27;;;;;;;5.30;4.57;;;34.30;48.30;;;;;;5160153;27;20435;-58
2022/08/17 12:56:55;;;;;;;7.90;5.10;;;34.30;46.80;;;;;;5159023;27;20474;-57
2022/08/17 12:59:23;;;;;;;5.60;5.10;;;34.30;47.20;;;;;;5159394;27;20436;-59
2022/08/17 13:01:50;;;;;;;7.00;4.40;;;34.30;47.80;;;;;;5158984;27;20494;-61
2022/08/17 13:04:20;;;;;;;6.57;4.83;;;34.30;47.20;;;;;;5158976;27;20435;-59
2022/08/17 13:06:51;;;;;;;5.23;4.83;;;34.20;48.10;;;;;;5159422;27;20504;-57
2022/08/17 13:09:25;;;;;;;5.70;4.97;;;34.10;46.20;;;;;;5159295;27;20518;-61
2022/08/17 13:11:54;;;;;;;7.13;6.37;;;34.00;46.90;;;;;;5159174;27;20454;-62
2022/08/17 13:14:21;;;;;;;5.33;4.10;;;34.00;46.90;;;;;;5158814;27;20490;-61
2022/08/17 13:16:52;;;;;;;8.60;5.10;;;34.00;45.70;;;;;;5158598;27;20542;-63
2022/08/17 13:19:22;;;;;;;4.73;4.07;;;34.00;46.90;;;;;;5158747;27;20479;-61
2022/08/17 13:21:51;;;;;;;4.60;4.20;;;34.00;46.00;;;;;;5159278;27;20491;-62
2022/08/17 13:24:20;;;;;;;6.03;5.43;;;33.90;48.20;;;;;;5158446;27;20454;-60
2022/08/17 13:26:50;;;;;;;8.53;7.00;;;33.80;49.00;;;;;;5158802;27;20470;-58
2022/08/17 13:29:25;;;;;;;8.23;5.90;;;33.70;49.40;;;;;;5158314;27;20503;-57
2022/08/17 13:31:54;;;;;;;8.30;6.30;;;33.80;48.10;;;;;;5158626;27;20470;-60